sensor_id;sensor_type;location;lat;lon;timestamp;pressure;altitude;pressure_sealevel;temperature;humidity
37132;BME280;23035;50.032;21.978;2023-03-23T00:02:24;66218.94;;;10.00;100.00
37132;BME280;23035;50.032;21.978;2023-03-23T00:07:28;66254.34;;;10.33;100.00
37132;BME280;23035;50.032;21.978;2023-03-23T00:12:31;66269.88;;;10.48;100.00
37132;BME280;23035;50.032;21.978;2023-03-23T00:17:37;66247.91;;;10.27;100.00
37132;BME280;23035;50.032;21.978;2023-03-23T00:22:40;66177.19;;;9.63;100.00
37132;BME280;23035;50.032;21.978;2023-03-23T00:27:44;66213.03;;;9.94;100.00
37132;BME280;23035;50.032;21.978;2023-03-23T00:32:48;66217.25;;;9.96;100.00
37132;BME280;23035;50.032;21.978;2023-03-23T00:37:52;66214.56;;;9.93;100.00
37132;BME280;23035;50.032;21.978;2023-03-23T00:42:56;66185.78;;;9.71;100.00
37132;BME280;23035;50.032;21.978;2023-03-23T00:48:03;66201.22;;;9.83;100.00
37132;BME280;23035;50.032;21.978;2023-03-23T00:53:06;66202.84;;;9.85;100.00
37132;BME280;23035;50.032;21.978;2023-03-23T00:58:10;66246.81;;;10.26;100.00
37132;BME280;23035;50.032;21.978;2023-03-23T01:03:15;66211.41;;;9.93;100.00
37132;BME280;23035;50.032;21.978;2023-03-23T01:08:19;66243.50;;;10.21;100.00
37132;BME280;23035;50.032;21.978;2023-03-23T01:13:22;66189.91;;;9.70;100.00
37132;BME280;23035;50.032;21.978;2023-03-23T01:18:28;66210.34;;;9.92;100.00
37132;BME280;23035;50.032;21.978;2023-03-23T01:23:32;66189.91;;;9.70;100.00
37132;BME280;23035;50.032;21.978;2023-03-23T01:28:36;66249.50;;;10.29;100.00
37132;BME280;23035;50.032;21.978;2023-03-23T01:33:41;66240.50;;;10.23;100.00
37132;BME280;23035;50.032;21.978;2023-03-23T01:38:45;66243.09;;;10.23;100.00
37132;BME280;23035;50.032;21.978;2023-03-23T01:43:57;66194.19;;;9.74;100.00
37132;BME280;23035;50.032;21.978;2023-03-23T01:49:06;66234.91;;;10.13;100.00
37132;BME280;23035;50.032;21.978;2023-03-23T01:54:13;66147.03;;;9.29;100.00
37132;BME280;23035;50.032;21.978;2023-03-23T01:59:22;66133.63;;;9.16;100.00
37132;BME280;23035;50.032;21.978;2023-03-23T02:04:44;66249.88;;;10.24;100.00
37132;BME280;23035;50.032;21.978;2023-03-23T02:09:49;66204.38;;;9.84;100.00
37132;BME280;23035;50.032;21.978;2023-03-23T02:14:53;66161.06;;;9.45;100.00
37132;BME280;23035;50.032;21.978;2023-03-23T02:20:10;66200.63;;;9.80;100.00
37132;BME280;23035;50.032;21.978;2023-03-23T02:25:33;66201.78;;;9.84;100.00
37132;BME280;23035;50.032;21.978;2023-03-23T02:30:51;66175.50;;;9.59;100.00
37132;BME280;23035;50.032;21.978;2023-03-23T02:35:58;66183.47;;;9.64;100.00
37132;BME280;23035;50.032;21.978;2023-03-23T02:41:03;66209.81;;;9.91;100.00
37132;BME280;23035;50.032;21.978;2023-03-23T02:46:08;66225.28;;;10.03;100.00
37132;BME280;23035;50.032;21.978;2023-03-23T02:51:14;66247.81;;;10.25;100.00
37132;BME280;23035;50.032;21.978;2023-03-23T02:56:18;66253.16;;;10.30;100.00
37132;BME280;23035;50.032;21.978;2023-03-23T03:07:31;66200.16;;;9.82;100.00
37132;BME280;23035;50.032;21.978;2023-03-23T03:12:45;66202.75;;;9.82;100.00
37132;BME280;23035;50.032;21.978;2023-03-23T03:17:55;66259.00;;;10.33;100.00
37132;BME280;23035;50.032;21.978;2023-03-23T03:23:04;66172.91;;;9.59;100.00
37132;BME280;23035;50.032;21.978;2023-03-23T03:28:12;66227.88;;;10.03;100.00
37132;BME280;23035;50.032;21.978;2023-03-23T03:33:20;66155.59;;;9.37;100.00
37132;BME280;23035;50.032;21.978;2023-03-23T03:38:41;66146.41;;;9.26;100.00
37132;BME280;23035;50.032;21.978;2023-03-23T03:43:44;66228.50;;;10.06;100.00
37132;BME280;23035;50.032;21.978;2023-03-23T03:48:47;66219.56;;;10.03;100.00
37132;BME280;23035;50.032;21.978;2023-03-23T03:53:57;66314.31;;;10.88;100.00
37132;BME280;23035;50.032;21.978;2023-03-23T03:59:01;66263.91;;;10.40;100.00
37132;BME280;23035;50.032;21.978;2023-03-23T04:04:21;66263.00;;;10.44;100.00
37132;BME280;23035;50.032;21.978;2023-03-23T04:09:26;66225.28;;;10.03;100.00
37132;BME280;23035;50.032;21.978;2023-03-23T04:14:30;66225.28;;;10.03;100.00
37132;BME280;23035;50.032;21.978;2023-03-23T04:19:33;66296.06;;;10.71;100.00
37132;BME280;23035;50.032;21.978;2023-03-23T04:24:38;66256.84;;;10.31;100.00
37132;BME280;23035;50.032;21.978;2023-03-23T04:29:46;66251.56;;;10.28;100.00
37132;BME280;23035;50.032;21.978;2023-03-23T04:35:10;66268.28;;;10.47;100.00
37132;BME280;23035;50.032;21.978;2023-03-23T04:40:22;66259.06;;;10.36;100.00
37132;BME280;23035;50.032;21.978;2023-03-23T04:45:38;66242.63;;;10.25;100.00
37132;BME280;23035;50.032;21.978;2023-03-23T04:50:44;66250.13;;;10.32;100.00
37132;BME280;23035;50.032;21.978;2023-03-23T04:55:57;66311.56;;;10.83;100.00
37132;BME280;23035;50.032;21.978;2023-03-23T05:01:06;66328.44;;;11.06;100.00
37132;BME280;23035;50.032;21.978;2023-03-23T05:06:17;66251.66;;;10.31;100.00
37132;BME280;23035;50.032;21.978;2023-03-23T05:11:23;66282.75;;;10.60;100.00
37132;BME280;23035;50.032;21.978;2023-03-23T05:16:27;66449.66;;;12.19;96.97
37132;BME280;23035;50.032;21.978;2023-03-23T05:21:31;66386.75;;;11.57;98.67
37132;BME280;23035;50.032;21.978;2023-03-23T05:26:35;66335.78;;;11.08;100.00
37132;BME280;23035;50.032;21.978;2023-03-23T05:31:45;66369.03;;;11.40;100.00
37132;BME280;23035;50.032;21.978;2023-03-23T05:36:50;66369.03;;;11.40;100.00
37132;BME280;23035;50.032;21.978;2023-03-23T05:42:10;66405.09;;;11.76;97.97
37132;BME280;23035;50.032;21.978;2023-03-23T05:47:29;66378.25;;;11.51;98.71
37132;BME280;23035;50.032;21.978;2023-03-23T05:52:39;66420.16;;;11.91;95.82
37132;BME280;23035;50.032;21.978;2023-03-23T05:57:47;66393.28;;;11.65;98.47
37132;BME280;23035;50.032;21.978;2023-03-23T06:03:01;66437.41;;;12.10;93.37
37132;BME280;23035;50.032;21.978;2023-03-23T06:08:12;66433.56;;;12.03;93.98
37132;BME280;23035;50.032;21.978;2023-03-23T06:13:17;66448.38;;;12.10;94.76
37132;BME280;23035;50.032;21.978;2023-03-23T06:18:23;66462.03;;;12.30;92.79
37132;BME280;23035;50.032;21.978;2023-03-23T06:23:52;66501.16;;;12.65;90.01
37132;BME280;23035;50.032;21.978;2023-03-23T06:28:59;66492.41;;;12.52;91.30
37132;BME280;23035;50.032;21.978;2023-03-23T06:34:06;66499.00;;;12.63;89.84
37132;BME280;23035;50.032;21.978;2023-03-23T06:39:32;66510.81;;;12.74;89.05
37132;BME280;23035;50.032;21.978;2023-03-23T06:44:53;66510.28;;;12.74;89.70
37132;BME280;23035;50.032;21.978;2023-03-23T06:50:02;66532.31;;;12.95;88.30
37132;BME280;23035;50.032;21.978;2023-03-23T06:55:12;66518.34;;;12.81;89.41
37132;BME280;23035;50.032;21.978;2023-03-23T07:00:20;66513.06;;;12.79;89.68
37132;BME280;23035;50.032;21.978;2023-03-23T07:05:27;66581.25;;;13.41;85.01
37132;BME280;23035;50.032;21.978;2023-03-23T07:10:33;66599.59;;;13.61;84.55
37132;BME280;23035;50.032;21.978;2023-03-23T07:15:40;66640.28;;;13.94;83.22
37132;BME280;23035;50.032;21.978;2023-03-23T07:20:46;66570.56;;;13.33;86.17
37132;BME280;23035;50.032;21.978;2023-03-23T07:25:50;66613.41;;;13.69;84.83
37132;BME280;23035;50.032;21.978;2023-03-23T07:31:01;66705.47;;;14.58;78.13
37132;BME280;23035;50.032;21.978;2023-03-23T07:36:05;66691.56;;;14.48;78.54
37132;BME280;23035;50.032;21.978;2023-03-23T07:41:11;66794.25;;;15.42;74.44
37132;BME280;23035;50.032;21.978;2023-03-23T07:46:19;66816.97;;;15.66;73.99
37132;BME280;23035;50.032;21.978;2023-03-23T07:51:32;66835.19;;;15.81;73.11
37132;BME280;23035;50.032;21.978;2023-03-23T07:56:37;66913.38;;;16.57;68.73
37132;BME280;23035;50.032;21.978;2023-03-23T08:01:57;66830.44;;;15.79;69.86
37132;BME280;23035;50.032;21.978;2023-03-23T08:07:06;66890.69;;;16.33;67.82
37132;BME280;23035;50.032;21.978;2023-03-23T08:12:35;66908.44;;;16.50;67.58
37132;BME280;23035;50.032;21.978;2023-03-23T08:18:00;66983.31;;;17.18;66.85
37132;BME280;23035;50.032;21.978;2023-03-23T08:23:30;66937.03;;;16.77;66.29
37132;BME280;23035;50.032;21.978;2023-03-23T08:28:34;66949.34;;;16.86;65.81
37132;BME280;23035;50.032;21.978;2023-03-23T08:34:02;67024.34;;;17.60;61.95
37132;BME280;23035;50.032;21.978;2023-03-23T08:39:35;66963.03;;;17.07;62.61
37132;BME280;23035;50.032;21.978;2023-03-23T08:44:50;66998.63;;;17.40;63.52
37132;BME280;23035;50.032;21.978;2023-03-23T08:50:16;67055.19;;;17.91;59.89
37132;BME280;23035;50.032;21.978;2023-03-23T08:55:34;66972.75;;;17.16;61.49
37132;BME280;23035;50.032;21.978;2023-03-23T09:01:05;66973.81;;;17.17;61.82
37132;BME280;23035;50.032;21.978;2023-03-23T09:06:30;67005.06;;;17.46;61.91
37132;BME280;23035;50.032;21.978;2023-03-23T09:11:35;67034.59;;;17.69;60.88
37132;BME280;23035;50.032;21.978;2023-03-23T09:16:39;66925.69;;;16.67;64.11
37132;BME280;23035;50.032;21.978;2023-03-23T09:21:45;66982.50;;;17.28;61.40
37132;BME280;23035;50.032;21.978;2023-03-23T09:26:49;66940.25;;;16.80;62.47
37132;BME280;23035;50.032;21.978;2023-03-23T09:31:52;66980.22;;;17.20;63.21
37132;BME280;23035;50.032;21.978;2023-03-23T09:36:56;67024.44;;;17.62;59.52
37132;BME280;23035;50.032;21.978;2023-03-23T09:42:11;67083.69;;;18.16;58.76
37132;BME280;23035;50.032;21.978;2023-03-23T09:47:21;67030.81;;;17.66;59.24
37132;BME280;23035;50.032;21.978;2023-03-23T09:52:35;67100.41;;;18.31;57.63
37132;BME280;23035;50.032;21.978;2023-03-23T09:57:44;67133.19;;;18.57;57.32
37132;BME280;23035;50.032;21.978;2023-03-23T10:02:55;67060.44;;;17.91;58.38
37132;BME280;23035;50.032;21.978;2023-03-23T10:08:09;67068.59;;;18.01;59.90
37132;BME280;23035;50.032;21.978;2023-03-23T10:13:20;67046.00;;;17.83;60.61
37132;BME280;23035;50.032;21.978;2023-03-23T10:18:36;67023.25;;;17.59;60.31
37132;BME280;23035;50.032;21.978;2023-03-23T10:23:51;66949.97;;;16.89;63.02
37132;BME280;23035;50.032;21.978;2023-03-23T10:28:59;67033.50;;;17.68;61.89
37132;BME280;23035;50.032;21.978;2023-03-23T10:34:10;67019.50;;;17.55;59.83
37132;BME280;23035;50.032;21.978;2023-03-23T10:39:18;67079.31;;;18.09;59.82
37132;BME280;23035;50.032;21.978;2023-03-23T10:44:25;67116.66;;;18.49;57.52
37132;BME280;23035;50.032;21.978;2023-03-23T10:49:34;67025.44;;;17.61;58.97
37132;BME280;23035;50.032;21.978;2023-03-23T10:54:48;67019.56;;;17.58;59.21
37132;BME280;23035;50.032;21.978;2023-03-23T10:59:58;67039.53;;;17.76;58.38
37132;BME280;23035;50.032;21.978;2023-03-23T11:05:07;67044.41;;;17.81;58.66
37132;BME280;23035;50.032;21.978;2023-03-23T11:10:22;67005.06;;;17.46;59.75
37132;BME280;23035;50.032;21.978;2023-03-23T11:15:30;67013.72;;;17.55;60.04
37132;BME280;23035;50.032;21.978;2023-03-23T11:20:35;67012.56;;;17.51;59.59
37132;BME280;23035;50.032;21.978;2023-03-23T11:25:56;66987.22;;;17.27;60.22
37132;BME280;23035;50.032;21.978;2023-03-23T11:31:02;67003.31;;;17.40;61.22
37132;BME280;23035;50.032;21.978;2023-03-23T11:36:08;67015.25;;;17.54;60.52
37132;BME280;23035;50.032;21.978;2023-03-23T11:41:18;67093.00;;;18.29;59.36
37132;BME280;23035;50.032;21.978;2023-03-23T11:46:29;67018.34;;;17.52;59.40
37132;BME280;23035;50.032;21.978;2023-03-23T11:51:39;67145.34;;;18.79;55.16
37132;BME280;23035;50.032;21.978;2023-03-23T11:56:46;67197.63;;;19.26;53.86
37132;BME280;23035;50.032;21.978;2023-03-23T12:01:53;67208.41;;;19.36;53.72
37132;BME280;23035;50.032;21.978;2023-03-23T12:12:39;67379.63;;;20.95;48.77
37132;BME280;23035;50.032;21.978;2023-03-23T12:17:51;67171.19;;;19.01;53.94
37132;BME280;23035;50.032;21.978;2023-03-23T12:23:05;67153.38;;;18.84;53.97
37132;BME280;23035;50.032;21.978;2023-03-23T12:28:20;67195.94;;;19.22;52.19
37132;BME280;23035;50.032;21.978;2023-03-23T12:33:33;67261.28;;;19.83;51.08
37132;BME280;23035;50.032;21.978;2023-03-23T12:38:52;67267.63;;;19.84;49.75
37132;BME280;23035;50.032;21.978;2023-03-23T12:44:00;67386.69;;;21.04;47.61
37132;BME280;23035;50.032;21.978;2023-03-23T12:49:09;67331.06;;;20.51;48.28
37132;BME280;23035;50.032;21.978;2023-03-23T12:54:21;67331.09;;;20.54;48.70
37132;BME280;23035;50.032;21.978;2023-03-23T12:59:32;67567.38;;;22.74;43.86
37132;BME280;23035;50.032;21.978;2023-03-23T13:04:41;67587.94;;;22.93;43.58
37132;BME280;23035;50.032;21.978;2023-03-23T13:09:53;67540.19;;;22.43;42.36
37132;BME280;23035;50.032;21.978;2023-03-23T13:15:06;67618.78;;;23.22;42.33
37132;BME280;23035;50.032;21.978;2023-03-23T13:20:45;67529.84;;;22.31;43.90
37132;BME280;23035;50.032;21.978;2023-03-23T13:25:55;67315.91;;;20.37;47.49
37132;BME280;23035;50.032;21.978;2023-03-23T13:31:03;67454.84;;;21.68;43.31
37132;BME280;23035;50.032;21.978;2023-03-23T13:36:12;67476.53;;;21.91;43.08
37132;BME280;23035;50.032;21.978;2023-03-23T13:41:18;67449.41;;;21.63;44.05
37132;BME280;23035;50.032;21.978;2023-03-23T13:46:29;67510.13;;;22.25;42.58
37132;BME280;23035;50.032;21.978;2023-03-23T13:51:36;67600.34;;;23.02;41.39
37132;BME280;23035;50.032;21.978;2023-03-23T13:56:55;67434.28;;;21.48;44.66
37132;BME280;23035;50.032;21.978;2023-03-23T14:02:29;67406.59;;;21.17;46.20
37132;BME280;23035;50.032;21.978;2023-03-23T14:07:51;67325.22;;;20.51;47.31
37132;BME280;23035;50.032;21.978;2023-03-23T14:12:55;67279.50;;;19.95;49.15
37132;BME280;23035;50.032;21.978;2023-03-23T14:18:02;67307.81;;;20.29;48.71
37132;BME280;23035;50.032;21.978;2023-03-23T14:23:06;67270.59;;;19.97;49.09
37132;BME280;23035;50.032;21.978;2023-03-23T14:28:17;67293.69;;;20.14;48.71
37132;BME280;23035;50.032;21.978;2023-03-23T14:33:21;67278.09;;;20.01;49.54
37132;BME280;23035;50.032;21.978;2023-03-23T14:38:25;67255.81;;;19.75;51.26
37132;BME280;23035;50.032;21.978;2023-03-23T14:43:34;67178.66;;;19.05;52.09
37132;BME280;23035;50.032;21.978;2023-03-23T14:48:39;67145.34;;;18.79;53.26
37132;BME280;23035;50.032;21.978;2023-03-23T14:53:43;67085.25;;;18.15;54.38
37132;BME280;23035;50.032;21.978;2023-03-23T14:58:47;67140.28;;;18.67;53.93
37132;BME280;23035;50.032;21.978;2023-03-23T15:03:54;67061.03;;;17.94;55.31
37132;BME280;23035;50.032;21.978;2023-03-23T15:09:01;67028.66;;;17.64;56.61
37132;BME280;23035;50.032;21.978;2023-03-23T15:14:44;67061.50;;;17.92;55.08
37132;BME280;23035;50.032;21.978;2023-03-23T15:19:50;67029.22;;;17.64;56.54
37132;BME280;23035;50.032;21.978;2023-03-23T15:25:02;66998.47;;;17.35;58.22
37132;BME280;23035;50.032;21.978;2023-03-23T15:30:14;67022.34;;;17.63;57.62
37132;BME280;23035;50.032;21.978;2023-03-23T15:35:24;67029.75;;;17.65;56.98
37132;BME280;23035;50.032;21.978;2023-03-23T15:40:33;67042.69;;;17.77;56.71
37132;BME280;23035;50.032;21.978;2023-03-23T15:45:38;67057.81;;;17.91;57.15
37132;BME280;23035;50.032;21.978;2023-03-23T15:50:43;66990.44;;;17.30;58.63
37132;BME280;23035;50.032;21.978;2023-03-23T15:55:49;66993.00;;;17.28;58.95
37132;BME280;23035;50.032;21.978;2023-03-23T16:00:52;66976.31;;;17.12;61.05
37132;BME280;23035;50.032;21.978;2023-03-23T16:05:59;67016.81;;;17.53;60.03
37132;BME280;23035;50.032;21.978;2023-03-23T16:11:05;66967.69;;;17.04;61.60
37132;BME280;23035;50.032;21.978;2023-03-23T16:16:13;66995.69;;;17.30;61.80
37132;BME280;23035;50.032;21.978;2023-03-23T16:21:20;66949.41;;;16.89;63.26
37132;BME280;23035;50.032;21.978;2023-03-23T16:26:25;67002.72;;;17.37;59.96
37132;BME280;23035;50.032;21.978;2023-03-23T16:31:29;67021.19;;;17.59;59.53
37132;BME280;23035;50.032;21.978;2023-03-23T16:36:35;66976.91;;;17.15;60.96
37132;BME280;23035;50.032;21.978;2023-03-23T16:41:39;66912.22;;;16.54;64.08
37132;BME280;23035;50.032;21.978;2023-03-23T16:46:43;66956.91;;;16.94;63.94
37132;BME280;23035;50.032;21.978;2023-03-23T16:51:49;66959.28;;;17.03;63.23
37132;BME280;23035;50.032;21.978;2023-03-23T16:56:53;66994.63;;;17.29;61.29
37132;BME280;23035;50.032;21.978;2023-03-23T17:01:57;66929.63;;;16.75;63.61
37132;BME280;23035;50.032;21.978;2023-03-23T17:07:06;66958.03;;;16.97;62.58
37132;BME280;23035;50.032;21.978;2023-03-23T17:12:10;66995.16;;;17.30;60.88
37132;BME280;23035;50.032;21.978;2023-03-23T17:17:14;67013.72;;;17.55;61.43
37132;BME280;23035;50.032;21.978;2023-03-23T17:22:20;67042.16;;;17.76;60.48
37132;BME280;23035;50.032;21.978;2023-03-23T17:27:24;67007.56;;;17.41;62.10
37132;BME280;23035;50.032;21.978;2023-03-23T17:32:29;66978.59;;;17.19;62.66
37132;BME280;23035;50.032;21.978;2023-03-23T17:37:35;66957.03;;;16.99;62.81
37132;BME280;23035;50.032;21.978;2023-03-23T17:42:41;66995.84;;;17.35;61.94
37132;BME280;23035;50.032;21.978;2023-03-23T17:47:45;66989.91;;;17.30;61.95
37132;BME280;23035;50.032;21.978;2023-03-23T17:52:53;66961.81;;;17.01;62.64
37132;BME280;23035;50.032;21.978;2023-03-23T17:57:58;67011.41;;;17.47;61.03
37132;BME280;23035;50.032;21.978;2023-03-23T18:03:03;66990.00;;;17.32;61.48
37132;BME280;23035;50.032;21.978;2023-03-23T18:08:09;67030.81;;;17.66;60.58
37132;BME280;23035;50.032;21.978;2023-03-23T18:13:14;67024.97;;;17.63;60.29
37132;BME280;23035;50.032;21.978;2023-03-23T18:18:18;66952.81;;;16.97;62.04
37132;BME280;23035;50.032;21.978;2023-03-23T18:23:24;66932.25;;;16.75;62.50
37132;BME280;23035;50.032;21.978;2023-03-23T18:28:29;67041.56;;;17.73;60.03
37132;BME280;23035;50.032;21.978;2023-03-23T18:33:34;67048.16;;;17.85;59.01
37132;BME280;23035;50.032;21.978;2023-03-23T18:38:40;67062.66;;;17.96;59.09
37132;BME280;23035;50.032;21.978;2023-03-23T18:43:44;67022.19;;;17.58;59.90
37132;BME280;23035;50.032;21.978;2023-03-23T18:48:49;66980.63;;;17.16;62.10
37132;BME280;23035;50.032;21.978;2023-03-23T18:53:54;66955.28;;;16.92;62.62
37132;BME280;23035;50.032;21.978;2023-03-23T18:58:58;66990.53;;;17.33;61.04
37132;BME280;23035;50.032;21.978;2023-03-23T19:04:03;66925.78;;;16.69;63.51
37132;BME280;23035;50.032;21.978;2023-03-23T19:09:10;66884.69;;;16.25;65.97
37132;BME280;23035;50.032;21.978;2023-03-23T19:14:14;66890.28;;;16.38;65.72
37132;BME280;23035;50.032;21.978;2023-03-23T19:19:19;66894.91;;;16.35;66.88
37132;BME280;23035;50.032;21.978;2023-03-23T19:24:25;66890.69;;;16.33;69.10
37132;BME280;23035;50.032;21.978;2023-03-23T19:29:34;66844.44;;;15.92;71.35
37132;BME280;23035;50.032;21.978;2023-03-23T19:34:38;66774.81;;;15.21;74.74
37132;BME280;23035;50.032;21.978;2023-03-23T19:39:44;66813.19;;;15.63;73.79
37132;BME280;23035;50.032;21.978;2023-03-23T19:44:48;66849.13;;;15.92;72.77
37132;BME280;23035;50.032;21.978;2023-03-23T19:49:52;66845.53;;;15.93;71.75
37132;BME280;23035;50.032;21.978;2023-03-23T19:54:59;66821.69;;;15.66;71.55
37132;BME280;23035;50.032;21.978;2023-03-23T20:00:05;66784.66;;;15.36;71.74
37132;BME280;23035;50.032;21.978;2023-03-23T20:05:09;66838.44;;;15.84;69.94
37132;BME280;23035;50.032;21.978;2023-03-23T20:10:15;66834.13;;;15.80;71.00
37132;BME280;23035;50.032;21.978;2023-03-23T20:15:20;66849.75;;;15.95;70.53
37132;BME280;23035;50.032;21.978;2023-03-23T20:20:25;66813.66;;;15.61;71.95
37132;BME280;23035;50.032;21.978;2023-03-23T20:25:31;66821.69;;;15.66;71.69
37132;BME280;23035;50.032;21.978;2023-03-23T20:30:36;66796.34;;;15.42;73.63
37132;BME280;23035;50.032;21.978;2023-03-23T20:35:40;66785.75;;;15.37;74.28
37132;BME280;23035;50.032;21.978;2023-03-23T20:40:47;66855.13;;;16.00;71.52
37132;BME280;23035;50.032;21.978;2023-03-23T20:45:51;66788.81;;;15.35;73.25
37132;BME280;23035;50.032;21.978;2023-03-23T20:50:55;66808.19;;;15.53;72.06
37132;BME280;23035;50.032;21.978;2023-03-23T20:56:03;66824.06;;;15.75;71.67
37132;BME280;23035;50.032;21.978;2023-03-23T21:01:09;66835.13;;;15.78;70.89
37132;BME280;23035;50.032;21.978;2023-03-23T21:06:14;66737.28;;;14.91;75.25
37132;BME280;23035;50.032;21.978;2023-03-23T21:11:21;66775.97;;;15.25;74.25
37132;BME280;23035;50.032;21.978;2023-03-23T21:16:26;66806.13;;;15.54;73.17
37132;BME280;23035;50.032;21.978;2023-03-23T21:21:30;66735.97;;;14.82;76.11
37132;BME280;23035;50.032;21.978;2023-03-23T21:26:38;66778.19;;;15.30;75.25
37132;BME280;23035;50.032;21.978;2023-03-23T21:31:42;66808.88;;;15.59;73.12
37132;BME280;23035;50.032;21.978;2023-03-23T21:36:48;66776.97;;;15.24;75.18
37132;BME280;23035;50.032;21.978;2023-03-23T21:41:54;66772.28;;;15.24;74.42
37132;BME280;23035;50.032;21.978;2023-03-23T21:47:01;66768.44;;;15.18;74.28
37132;BME280;23035;50.032;21.978;2023-03-23T21:52:05;66761.97;;;15.12;74.66
37132;BME280;23035;50.032;21.978;2023-03-23T21:57:11;66800.19;;;15.48;72.73
37132;BME280;23035;50.032;21.978;2023-03-23T22:02:15;66832.97;;;15.76;72.24
37132;BME280;23035;50.032;21.978;2023-03-23T22:07:19;66749.13;;;15.02;74.68
37132;BME280;23035;50.032;21.978;2023-03-23T22:12:27;66800.19;;;15.48;72.81
37132;BME280;23035;50.032;21.978;2023-03-23T22:17:31;66755.00;;;15.05;74.83
37132;BME280;23035;50.032;21.978;2023-03-23T22:22:35;66802.94;;;15.53;72.37
37132;BME280;23035;50.032;21.978;2023-03-23T22:27:41;66766.72;;;15.14;73.88
37132;BME280;23035;50.032;21.978;2023-03-23T22:32:46;66750.75;;;15.04;74.83
37132;BME280;23035;50.032;21.978;2023-03-23T22:37:51;66761.44;;;15.11;75.11
37132;BME280;23035;50.032;21.978;2023-03-23T22:42:57;66766.34;;;15.18;73.96
37132;BME280;23035;50.032;21.978;2023-03-23T22:48:01;66774.44;;;15.26;73.57
37132;BME280;23035;50.032;21.978;2023-03-23T22:53:07;66801.25;;;15.49;72.98
37132;BME280;23035;50.032;21.978;2023-03-23T22:58:16;66787.28;;;15.36;73.24
37132;BME280;23035;50.032;21.978;2023-03-23T23:03:20;66780.28;;;15.29;73.47
37132;BME280;23035;50.032;21.978;2023-03-23T23:08:27;66787.28;;;15.36;72.65
37132;BME280;23035;50.032;21.978;2023-03-23T23:13:33;66847.44;;;15.88;70.93
37132;BME280;23035;50.032;21.978;2023-03-23T23:18:37;66778.13;;;15.27;73.15
37132;BME280;23035;50.032;21.978;2023-03-23T23:23:42;66795.91;;;15.44;72.66
37132;BME280;23035;50.032;21.978;2023-03-23T23:28:49;66762.06;;;15.14;74.33
37132;BME280;23035;50.032;21.978;2023-03-23T23:33:56;66782.41;;;15.31;73.70
37132;BME280;23035;50.032;21.978;2023-03-23T23:39:01;66747.44;;;14.98;75.00
37132;BME280;23035;50.032;21.978;2023-03-23T23:44:09;66767.34;;;15.17;74.18
37132;BME280;23035;50.032;21.978;2023-03-23T23:49:13;66755.66;;;15.11;74.61
37132;BME280;23035;50.032;21.978;2023-03-23T23:54:17;66729.69;;;14.81;76.28
37132;BME280;23035;50.032;21.978;2023-03-23T23:59:26;66777.13;;;15.29;74.77
